sensor_id;sensor_type;location;lat;lon;timestamp;pressure;altitude;pressure_sealevel;temperature;humidity
7058;BME280;3570;43.080;25.628;2023-05-22T00:01:50;-19863.06;;;14.07;100.00
7058;BME280;3570;43.080;25.628;2023-05-22T00:04:34;-19864.97;;;14.14;100.00
7058;BME280;3570;43.080;25.628;2023-05-22T00:07:18;-19858.69;;;13.92;100.00
7058;BME280;3570;43.080;25.628;2023-05-22T00:10:04;-19867.00;;;14.21;100.00
7058;BME280;3570;43.080;25.628;2023-05-22T00:12:48;-19864.09;;;14.11;100.00
7058;BME280;3570;43.080;25.628;2023-05-22T00:15:32;-19864.09;;;14.11;100.00
7058;BME280;3570;43.080;25.628;2023-05-22T00:18:16;-19858.69;;;13.92;100.00
7058;BME280;3570;43.080;25.628;2023-05-22T00:21:00;-19858.25;;;13.91;100.00
7058;BME280;3570;43.080;25.628;2023-05-22T00:23:44;-19853.31;;;13.74;100.00
7058;BME280;3570;43.080;25.628;2023-05-22T00:26:28;-19848.78;;;13.58;100.00
7058;BME280;3570;43.080;25.628;2023-05-22T00:29:12;-19852.88;;;13.72;100.00
7058;BME280;3570;43.080;25.628;2023-05-22T00:31:56;-19851.69;;;13.68;100.00
7058;BME280;3570;43.080;25.628;2023-05-22T00:34:39;-19848.50;;;13.57;100.00
7058;BME280;3570;43.080;25.628;2023-05-22T00:37:23;-19846.75;;;13.51;100.00
7058;BME280;3570;43.080;25.628;2023-05-22T00:40:08;-19840.63;;;13.30;100.00
7058;BME280;3570;43.080;25.628;2023-05-22T00:42:52;-19843.25;;;13.39;100.00
7058;BME280;3570;43.080;25.628;2023-05-22T00:45:36;-19833.63;;;13.06;100.00
7058;BME280;3570;43.080;25.628;2023-05-22T00:48:20;-19834.81;;;13.10;100.00
7058;BME280;3570;43.080;25.628;2023-05-22T00:51:05;-19834.06;;;13.07;100.00
7058;BME280;3570;43.080;25.628;2023-05-22T00:53:50;-19838.88;;;13.24;100.00
7058;BME280;3570;43.080;25.628;2023-05-22T00:56:35;-19838.31;;;13.22;100.00
7058;BME280;3570;43.080;25.628;2023-05-22T00:59:18;-19815.53;;;12.44;100.00
7058;BME280;3570;43.080;25.628;2023-05-22T01:02:03;-19826.63;;;12.82;100.00
7058;BME280;3570;43.080;25.628;2023-05-22T01:04:48;-19834.94;;;13.10;100.00
7058;BME280;3570;43.080;25.628;2023-05-22T01:07:33;-19831.72;;;12.99;100.00
7058;BME280;3570;43.080;25.628;2023-05-22T01:10:20;-19837.13;;;13.18;100.00
7058;BME280;3570;43.080;25.628;2023-05-22T01:13:29;-19833.94;;;13.07;100.00
7058;BME280;3570;43.080;25.628;2023-05-22T01:16:38;-19830.84;;;12.96;100.00
7058;BME280;3570;43.080;25.628;2023-05-22T01:32:08;-19824.88;;;12.76;100.00
7058;BME280;3570;43.080;25.628;2023-05-22T01:34:55;-19823.72;;;12.72;100.00
7058;BME280;3570;43.080;25.628;2023-05-22T01:37:42;-19827.50;;;12.85;100.00
7058;BME280;3570;43.080;25.628;2023-05-22T01:40:28;-19826.63;;;12.82;100.00
7058;BME280;3570;43.080;25.628;2023-05-22T01:43:14;-19830.72;;;12.96;100.00
7058;BME280;3570;43.080;25.628;2023-05-22T01:45:58;-19824.88;;;12.76;100.00
7058;BME280;3570;43.080;25.628;2023-05-22T01:48:42;-19823.28;;;12.70;100.00
7058;BME280;3570;43.080;25.628;2023-05-22T01:54:36;-19828.97;;;12.90;100.00
7058;BME280;3570;43.080;25.628;2023-05-22T01:57:53;-19829.84;;;12.93;100.00
7058;BME280;3570;43.080;25.628;2023-05-22T02:00:40;-19827.50;;;12.85;100.00
7058;BME280;3570;43.080;25.628;2023-05-22T02:03:30;-19823.72;;;12.72;100.00
7058;BME280;3570;43.080;25.628;2023-05-22T02:06:14;-19822.25;;;12.67;100.00
7058;BME280;3570;43.080;25.628;2023-05-22T02:09:00;-19820.50;;;12.61;100.00
7058;BME280;3570;43.080;25.628;2023-05-22T02:11:45;-19822.84;;;12.69;100.00
7058;BME280;3570;43.080;25.628;2023-05-22T02:14:30;-19823.13;;;12.70;100.00
7058;BME280;3570;43.080;25.628;2023-05-22T02:17:14;-19821.53;;;12.64;100.00
7058;BME280;3570;43.080;25.628;2023-05-22T02:20:01;-19816.84;;;12.48;100.00
7058;BME280;3570;43.080;25.628;2023-05-22T02:22:46;-19822.25;;;12.67;100.00
7058;BME280;3570;43.080;25.628;2023-05-22T02:25:30;-19811.91;;;12.31;100.00
7058;BME280;3570;43.080;25.628;2023-05-22T02:28:14;-19821.97;;;12.66;100.00
7058;BME280;3570;43.080;25.628;2023-05-22T02:30:58;-19814.38;;;12.40;100.00
7058;BME280;3570;43.080;25.628;2023-05-22T02:33:42;-19814.09;;;12.39;100.00
7058;BME280;3570;43.080;25.628;2023-05-22T02:36:26;-19817.16;;;12.49;100.00
7058;BME280;3570;43.080;25.628;2023-05-22T02:39:09;-19808.41;;;12.19;100.00
7058;BME280;3570;43.080;25.628;2023-05-22T02:41:54;-19810.00;;;12.24;100.00
7058;BME280;3570;43.080;25.628;2023-05-22T02:44:38;-19789.13;;;11.53;100.00
7058;BME280;3570;43.080;25.628;2023-05-22T02:47:22;-19814.38;;;12.40;100.00
7058;BME280;3570;43.080;25.628;2023-05-22T02:50:06;-19812.91;;;12.35;100.00
7058;BME280;3570;43.080;25.628;2023-05-22T02:52:50;-19808.09;;;12.18;100.00
7058;BME280;3570;43.080;25.628;2023-05-22T02:55:34;-19805.03;;;12.07;100.00
7058;BME280;3570;43.080;25.628;2023-05-22T02:58:18;-19799.78;;;11.89;100.00
7058;BME280;3570;43.080;25.628;2023-05-22T03:01:04;-19804.91;;;12.07;100.00
7058;BME280;3570;43.080;25.628;2023-05-22T03:03:51;-19806.78;;;12.13;100.00
7058;BME280;3570;43.080;25.628;2023-05-22T03:06:37;-19808.53;;;12.19;100.00
7058;BME280;3570;43.080;25.628;2023-05-22T03:09:21;-19798.91;;;11.86;100.00
7058;BME280;3570;43.080;25.628;2023-05-22T03:12:05;-19800.97;;;11.93;100.00
7058;BME280;3570;43.080;25.628;2023-05-22T03:14:49;-19807.66;;;12.16;100.00
7058;BME280;3570;43.080;25.628;2023-05-22T03:17:33;-19815.53;;;12.44;100.00
7058;BME280;3570;43.080;25.628;2023-05-22T03:20:17;-19807.09;;;12.14;100.00
7058;BME280;3570;43.080;25.628;2023-05-22T03:23:01;-19817.72;;;12.51;100.00
7058;BME280;3570;43.080;25.628;2023-05-22T03:25:46;-19820.38;;;12.60;100.00
7058;BME280;3570;43.080;25.628;2023-05-22T03:28:30;-19821.81;;;12.65;100.00
7058;BME280;3570;43.080;25.628;2023-05-22T03:31:14;-19823.72;;;12.72;100.00
7058;BME280;3570;43.080;25.628;2023-05-22T03:33:58;-19824.28;;;12.74;100.00
7058;BME280;3570;43.080;25.628;2023-05-22T03:36:43;-19825.16;;;12.77;100.00
7058;BME280;3570;43.080;25.628;2023-05-22T03:39:27;-19824.75;;;12.75;100.00
7058;BME280;3570;43.080;25.628;2023-05-22T03:42:11;-19819.63;;;12.58;100.00
7058;BME280;3570;43.080;25.628;2023-05-22T03:44:56;-19824.16;;;12.73;100.00
7058;BME280;3570;43.080;25.628;2023-05-22T03:47:39;-19827.22;;;12.84;100.00
7058;BME280;3570;43.080;25.628;2023-05-22T03:50:24;-19828.53;;;12.88;100.00
7058;BME280;3570;43.080;25.628;2023-05-22T03:53:08;-19831.88;;;13.00;100.00
7058;BME280;3570;43.080;25.628;2023-05-22T03:55:52;-19832.91;;;13.03;100.00
7058;BME280;3570;43.080;25.628;2023-05-22T03:58:36;-19829.69;;;12.92;100.00
7058;BME280;3570;43.080;25.628;2023-05-22T04:01:20;-19838.00;;;13.21;100.00
7058;BME280;3570;43.080;25.628;2023-05-22T04:04:04;-19834.81;;;13.10;100.00
7058;BME280;3570;43.080;25.628;2023-05-22T04:06:48;-19844.84;;;13.45;100.00
7058;BME280;3570;43.080;25.628;2023-05-22T04:09:34;-19846.59;;;13.51;100.00
7058;BME280;3570;43.080;25.628;2023-05-22T04:12:19;-19847.91;;;13.55;100.00
7058;BME280;3570;43.080;25.628;2023-05-22T04:15:03;-19853.44;;;13.74;100.00
7058;BME280;3570;43.080;25.628;2023-05-22T04:17:47;-19852.28;;;13.70;100.00
7058;BME280;3570;43.080;25.628;2023-05-22T04:20:32;-19861.47;;;14.02;100.00
7058;BME280;3570;43.080;25.628;2023-05-22T04:23:16;-19865.41;;;14.15;100.00
7058;BME280;3570;43.080;25.628;2023-05-22T04:26:01;-19859.13;;;13.94;100.00
7058;BME280;3570;43.080;25.628;2023-05-22T04:28:46;-19874.44;;;14.47;100.00
7058;BME280;3570;43.080;25.628;2023-05-22T04:31:30;-19874.44;;;14.47;100.00
7058;BME280;3570;43.080;25.628;2023-05-22T04:34:15;-19873.28;;;14.43;100.00
7058;BME280;3570;43.080;25.628;2023-05-22T04:36:59;-19884.63;;;14.82;100.00
7058;BME280;3570;43.080;25.628;2023-05-22T04:39:46;-19890.59;;;15.02;100.00
7058;BME280;3570;43.080;25.628;2023-05-22T04:42:31;-19889.56;;;14.99;100.00
7058;BME280;3570;43.080;25.628;2023-05-22T04:45:17;-19896.84;;;15.24;100.00
7058;BME280;3570;43.080;25.628;2023-05-22T04:48:02;-19885.66;;;14.85;100.00
7058;BME280;3570;43.080;25.628;2023-05-22T04:50:48;-19901.22;;;15.39;100.00
7058;BME280;3570;43.080;25.628;2023-05-22T04:53:32;-19914.03;;;15.83;100.00
7058;BME280;3570;43.080;25.628;2023-05-22T04:56:16;-19914.31;;;15.84;100.00
7058;BME280;3570;43.080;25.628;2023-05-22T04:59:00;-19918.84;;;16.00;100.00
7058;BME280;3570;43.080;25.628;2023-05-22T05:01:44;-19918.41;;;15.98;100.00
7058;BME280;3570;43.080;25.628;2023-05-22T05:04:28;-19917.81;;;15.96;100.00
7058;BME280;3570;43.080;25.628;2023-05-22T05:07:13;-19930.91;;;16.42;100.00
7058;BME280;3570;43.080;25.628;2023-05-22T05:10:01;-19922.75;;;16.14;100.00
7058;BME280;3570;43.080;25.628;2023-05-22T05:12:45;-19926.97;;;16.28;100.00
7058;BME280;3570;43.080;25.628;2023-05-22T05:15:30;-19928.88;;;16.35;100.00
7058;BME280;3570;43.080;25.628;2023-05-22T05:18:14;-19943.84;;;16.86;100.00
7058;BME280;3570;43.080;25.628;2023-05-22T05:20:58;-19944.00;;;16.87;100.00
7058;BME280;3570;43.080;25.628;2023-05-22T05:23:42;-19945.59;;;16.92;100.00
7058;BME280;3570;43.080;25.628;2023-05-22T05:26:26;-19943.84;;;16.86;100.00
7058;BME280;3570;43.080;25.628;2023-05-22T05:29:11;-19954.44;;;17.23;100.00
7058;BME280;3570;43.080;25.628;2023-05-22T05:31:55;-19954.75;;;17.24;100.00
7058;BME280;3570;43.080;25.628;2023-05-22T05:34:39;-19959.97;;;17.42;100.00
7058;BME280;3570;43.080;25.628;2023-05-22T05:37:24;-19952.72;;;17.17;100.00
7058;BME280;3570;43.080;25.628;2023-05-22T05:40:08;-19955.75;;;17.28;100.00
7058;BME280;3570;43.080;25.628;2023-05-22T05:42:53;-19957.06;;;17.32;100.00
7058;BME280;3570;43.080;25.628;2023-05-22T05:45:37;-19946.31;;;16.95;100.00
7058;BME280;3570;43.080;25.628;2023-05-22T05:48:22;-19946.03;;;16.94;100.00
7058;BME280;3570;43.080;25.628;2023-05-22T05:51:06;-19956.34;;;17.30;100.00
7058;BME280;3570;43.080;25.628;2023-05-22T05:53:50;-19961.00;;;17.46;100.00
7058;BME280;3570;43.080;25.628;2023-05-22T05:56:34;-19968.41;;;17.71;100.00
7058;BME280;3570;43.080;25.628;2023-05-22T05:59:18;-19984.38;;;18.27;100.00
7058;BME280;3570;43.080;25.628;2023-05-22T06:02:02;-19988.16;;;18.40;100.00
7058;BME280;3570;43.080;25.628;2023-05-22T06:04:46;-20002.09;;;18.88;100.00
7058;BME280;3570;43.080;25.628;2023-05-22T06:07:31;-20001.38;;;18.86;100.00
7058;BME280;3570;43.080;25.628;2023-05-22T06:10:14;-19999.19;;;18.78;100.00
7058;BME280;3570;43.080;25.628;2023-05-22T06:12:58;-20014.72;;;19.32;100.00
7058;BME280;3570;43.080;25.628;2023-05-22T06:15:42;-20022.97;;;19.60;100.00
7058;BME280;3570;43.080;25.628;2023-05-22T06:18:26;-20032.56;;;19.94;100.00
7058;BME280;3570;43.080;25.628;2023-05-22T06:21:11;-20043.56;;;20.32;100.00
7058;BME280;3570;43.080;25.628;2023-05-22T06:23:55;-20053.84;;;20.68;100.00
7058;BME280;3570;43.080;25.628;2023-05-22T06:26:40;-20058.34;;;20.83;100.00
7058;BME280;3570;43.080;25.628;2023-05-22T06:29:24;-20054.44;;;20.70;100.00
7058;BME280;3570;43.080;25.628;2023-05-22T06:32:08;-20058.34;;;20.83;100.00
7058;BME280;3570;43.080;25.628;2023-05-22T06:34:52;-20056.47;;;20.77;99.66
7058;BME280;3570;43.080;25.628;2023-05-22T06:37:36;-20068.50;;;21.18;95.42
7058;BME280;3570;43.080;25.628;2023-05-22T06:40:21;-20061.25;;;20.93;94.22
7058;BME280;3570;43.080;25.628;2023-05-22T06:43:05;-20074.13;;;21.38;92.41
7058;BME280;3570;43.080;25.628;2023-05-22T06:45:49;-20066.63;;;21.12;93.27
7058;BME280;3570;43.080;25.628;2023-05-22T06:48:33;-20064.28;;;21.04;93.79
7058;BME280;3570;43.080;25.628;2023-05-22T06:51:20;-20058.78;;;20.85;94.95
7058;BME280;3570;43.080;25.628;2023-05-22T06:54:04;-20065.59;;;21.08;93.70
7058;BME280;3570;43.080;25.628;2023-05-22T06:56:49;-20065.31;;;21.07;92.43
7058;BME280;3570;43.080;25.628;2023-05-22T06:59:33;-20076.16;;;21.45;91.78
7058;BME280;3570;43.080;25.628;2023-05-22T07:02:17;-20085.28;;;21.77;89.50
7058;BME280;3570;43.080;25.628;2023-05-22T07:05:02;-20079.50;;;21.57;90.67
7058;BME280;3570;43.080;25.628;2023-05-22T07:07:46;-20086.00;;;21.79;88.72
7058;BME280;3570;43.080;25.628;2023-05-22T07:10:29;-20085.88;;;21.79;89.06
7058;BME280;3570;43.080;25.628;2023-05-22T07:13:13;-20082.09;;;21.66;89.23
7058;BME280;3570;43.080;25.628;2023-05-22T07:15:57;-20097.75;;;22.20;86.29
7058;BME280;3570;43.080;25.628;2023-05-22T07:18:41;-20092.09;;;22.00;86.58
7058;BME280;3570;43.080;25.628;2023-05-22T07:21:28;-20088.47;;;21.88;85.38
7058;BME280;3570;43.080;25.628;2023-05-22T07:24:14;-20079.66;;;21.57;84.01
7058;BME280;3570;43.080;25.628;2023-05-22T07:26:58;-20082.53;;;21.67;88.02
7058;BME280;3570;43.080;25.628;2023-05-22T07:29:42;-20070.22;;;21.24;87.39
7058;BME280;3570;43.080;25.628;2023-05-22T07:32:26;-20055.31;;;20.73;90.44
7058;BME280;3570;43.080;25.628;2023-05-22T07:35:10;-20055.16;;;20.72;90.53
7058;BME280;3570;43.080;25.628;2023-05-22T07:37:54;-20049.66;;;20.53;87.60
7058;BME280;3570;43.080;25.628;2023-05-22T07:40:38;-20034.72;;;20.01;92.76
7058;BME280;3570;43.080;25.628;2023-05-22T07:43:22;-20038.63;;;20.15;92.50
7058;BME280;3570;43.080;25.628;2023-05-22T07:46:06;-20038.06;;;20.13;93.41
7058;BME280;3570;43.080;25.628;2023-05-22T07:48:52;-20032.69;;;19.94;93.29
7058;BME280;3570;43.080;25.628;2023-05-22T07:51:36;-20028.63;;;19.80;94.70
7058;BME280;3570;43.080;25.628;2023-05-22T07:54:20;-20031.38;;;19.90;95.02
7058;BME280;3570;43.080;25.628;2023-05-22T07:57:04;-20038.06;;;20.13;94.57
7058;BME280;3570;43.080;25.628;2023-05-22T07:59:48;-20034.88;;;20.02;95.32
7058;BME280;3570;43.080;25.628;2023-05-22T08:02:34;-20031.97;;;19.92;94.88
7058;BME280;3570;43.080;25.628;2023-05-22T08:05:18;-20040.97;;;20.23;93.49
7058;BME280;3570;43.080;25.628;2023-05-22T08:08:02;-20050.38;;;20.55;93.43
7058;BME280;3570;43.080;25.628;2023-05-22T08:10:47;-20052.25;;;20.62;91.99
7058;BME280;3570;43.080;25.628;2023-05-22T08:13:31;-20048.22;;;20.48;92.68
7058;BME280;3570;43.080;25.628;2023-05-22T08:16:15;-20056.63;;;20.77;91.54
7058;BME280;3570;43.080;25.628;2023-05-22T08:18:59;-20054.28;;;20.69;92.19
7058;BME280;3570;43.080;25.628;2023-05-22T08:21:43;-20068.78;;;21.19;91.24
7058;BME280;3570;43.080;25.628;2023-05-22T08:24:27;-20073.84;;;21.37;88.36
7058;BME280;3570;43.080;25.628;2023-05-22T08:27:13;-20064.88;;;21.06;90.21
7058;BME280;3570;43.080;25.628;2023-05-22T08:30:00;-20060.22;;;20.90;90.06
7058;BME280;3570;43.080;25.628;2023-05-22T08:32:45;-20051.69;;;20.60;92.87
7058;BME280;3570;43.080;25.628;2023-05-22T08:35:29;-20066.47;;;21.11;91.16
7058;BME280;3570;43.080;25.628;2023-05-22T08:38:13;-20067.03;;;21.13;89.59
7058;BME280;3570;43.080;25.628;2023-05-22T08:40:57;-20074.28;;;21.38;88.70
7058;BME280;3570;43.080;25.628;2023-05-22T08:43:41;-20077.19;;;21.48;89.67
7058;BME280;3570;43.080;25.628;2023-05-22T08:46:25;-20093.09;;;22.04;87.14
7058;BME280;3570;43.080;25.628;2023-05-22T08:49:11;-20111.03;;;22.66;86.19
7058;BME280;3570;43.080;25.628;2023-05-22T08:52:04;-20119.72;;;22.96;83.53
7058;BME280;3570;43.080;25.628;2023-05-22T08:54:51;-20131.28;;;23.37;82.65
7058;BME280;3570;43.080;25.628;2023-05-22T08:57:37;-20133.88;;;23.46;82.46
7058;BME280;3570;43.080;25.628;2023-05-22T09:00:22;-20124.94;;;23.14;82.79
7058;BME280;3570;43.080;25.628;2023-05-22T09:03:06;-20160.19;;;24.37;79.95
7058;BME280;3570;43.080;25.628;2023-05-22T09:05:53;-20161.34;;;24.41;76.39
7058;BME280;3570;43.080;25.628;2023-05-22T09:08:37;-20180.41;;;25.07;73.06
7058;BME280;3570;43.080;25.628;2023-05-22T09:11:22;-20194.69;;;25.57;70.20
7058;BME280;3570;43.080;25.628;2023-05-22T09:14:09;-20202.75;;;25.85;69.13
7058;BME280;3570;43.080;25.628;2023-05-22T09:16:54;-20210.13;;;26.11;68.14
7058;BME280;3570;43.080;25.628;2023-05-22T09:19:44;-20200.72;;;25.78;68.66
7058;BME280;3570;43.080;25.628;2023-05-22T09:22:34;-20213.28;;;26.22;66.79
7058;BME280;3570;43.080;25.628;2023-05-22T09:25:22;-20202.47;;;25.84;65.44
7058;BME280;3570;43.080;25.628;2023-05-22T09:28:05;-20212.13;;;26.18;65.80
7058;BME280;3570;43.080;25.628;2023-05-22T09:30:52;-20221.19;;;26.50;64.35
7058;BME280;3570;43.080;25.628;2023-05-22T09:33:36;-20222.22;;;26.53;64.74
7058;BME280;3570;43.080;25.628;2023-05-22T09:36:20;-20236.34;;;27.03;61.03
7058;BME280;3570;43.080;25.628;2023-05-22T09:39:05;-20236.91;;;27.05;60.64
7058;BME280;3570;43.080;25.628;2023-05-22T09:41:49;-20229.72;;;26.79;61.38
7058;BME280;3570;43.080;25.628;2023-05-22T09:44:34;-20214.72;;;26.27;63.33
7058;BME280;3570;43.080;25.628;2023-05-22T09:47:18;-20223.50;;;26.58;62.69
7058;BME280;3570;43.080;25.628;2023-05-22T09:50:04;-20239.06;;;27.12;59.86
7058;BME280;3570;43.080;25.628;2023-05-22T09:52:50;-20261.66;;;27.91;55.22
7058;BME280;3570;43.080;25.628;2023-05-22T09:55:35;-20232.00;;;26.87;57.78
7058;BME280;3570;43.080;25.628;2023-05-22T09:58:22;-20218.19;;;26.39;59.33
7058;BME280;3570;43.080;25.628;2023-05-22T10:01:07;-20219.75;;;26.45;59.68
7058;BME280;3570;43.080;25.628;2023-05-22T10:03:55;-20226.41;;;26.68;57.28
7058;BME280;3570;43.080;25.628;2023-05-22T10:06:41;-20234.03;;;26.94;56.16
7058;BME280;3570;43.080;25.628;2023-05-22T10:09:26;-20208.66;;;26.06;58.71
7058;BME280;3570;43.080;25.628;2023-05-22T10:12:16;-20232.59;;;26.89;58.93
7058;BME280;3570;43.080;25.628;2023-05-22T10:15:04;-20251.88;;;27.57;57.92
7058;BME280;3570;43.080;25.628;2023-05-22T10:17:50;-20290.88;;;28.93;54.15
7058;BME280;3570;43.080;25.628;2023-05-22T10:20:34;-20322.75;;;30.05;50.45
7058;BME280;3570;43.080;25.628;2023-05-22T10:23:19;-20317.59;;;29.87;47.28
7058;BME280;3570;43.080;25.628;2023-05-22T10:26:05;-20335.41;;;30.49;45.85
7058;BME280;3570;43.080;25.628;2023-05-22T10:29:05;-20342.28;;;30.73;44.51
7058;BME280;3570;43.080;25.628;2023-05-22T10:35:20;-20334.69;;;30.46;44.23
7058;BME280;3570;43.080;25.628;2023-05-22T10:41:25;-20374.25;;;31.85;41.64
7058;BME280;3570;43.080;25.628;2023-05-22T10:44:09;-20363.94;;;31.49;39.99
7058;BME280;3570;43.080;25.628;2023-05-22T10:46:53;-20392.47;;;32.49;39.89
7058;BME280;3570;43.080;25.628;2023-05-22T10:49:42;-20402.06;;;32.83;39.22
7058;BME280;3570;43.080;25.628;2023-05-22T10:52:32;-20408.78;;;33.06;38.18
7058;BME280;3570;43.080;25.628;2023-05-22T10:55:21;-20408.06;;;33.04;38.05
7058;BME280;3570;43.080;25.628;2023-05-22T10:58:12;-20419.66;;;33.45;36.80
7058;BME280;3570;43.080;25.628;2023-05-22T11:01:12;-20441.25;;;34.21;35.42
7058;BME280;3570;43.080;25.628;2023-05-22T11:06:43;-20419.06;;;33.43;35.73
7058;BME280;3570;43.080;25.628;2023-05-22T11:09:29;-20428.09;;;33.74;36.10
7058;BME280;3570;43.080;25.628;2023-05-22T11:12:24;-20416.94;;;33.35;36.65
7058;BME280;3570;43.080;25.628;2023-05-22T11:15:10;-20402.91;;;32.86;35.73
7058;BME280;3570;43.080;25.628;2023-05-22T11:18:01;-20426.53;;;33.69;35.43
7058;BME280;3570;43.080;25.628;2023-05-22T11:20:45;-20409.22;;;33.08;36.21
7058;BME280;3570;43.080;25.628;2023-05-22T11:23:32;-20421.38;;;33.51;35.24
7058;BME280;3570;43.080;25.628;2023-05-22T11:26:18;-20428.22;;;33.75;35.41
7058;BME280;3570;43.080;25.628;2023-05-22T11:29:05;-20445.81;;;34.37;34.83
7058;BME280;3570;43.080;25.628;2023-05-22T11:31:50;-20460.53;;;34.88;33.36
7058;BME280;3570;43.080;25.628;2023-05-22T11:34:34;-20455.53;;;34.71;33.82
7058;BME280;3570;43.080;25.628;2023-05-22T11:37:21;-20434.25;;;33.96;34.70
7058;BME280;3570;43.080;25.628;2023-05-22T11:40:06;-20344.16;;;30.80;39.71
7058;BME280;3570;43.080;25.628;2023-05-22T11:42:52;-20328.66;;;30.25;42.35
7058;BME280;3570;43.080;25.628;2023-05-22T11:45:38;-20359.06;;;31.32;39.99
7058;BME280;3570;43.080;25.628;2023-05-22T11:48:22;-20347.16;;;30.90;40.68
7058;BME280;3570;43.080;25.628;2023-05-22T11:51:07;-20366.81;;;31.59;38.99
7058;BME280;3570;43.080;25.628;2023-05-22T11:53:51;-20408.06;;;33.04;38.13
7058;BME280;3570;43.080;25.628;2023-05-22T11:56:35;-20430.81;;;33.84;36.16
7058;BME280;3570;43.080;25.628;2023-05-22T11:59:20;-20434.97;;;33.98;35.28
7058;BME280;3570;43.080;25.628;2023-05-22T12:02:08;-20447.53;;;34.43;34.47
7058;BME280;3570;43.080;25.628;2023-05-22T12:04:55;-20464.81;;;35.03;33.51
7058;BME280;3570;43.080;25.628;2023-05-22T12:07:40;-20479.25;;;35.54;33.06
7058;BME280;3570;43.080;25.628;2023-05-22T12:10:24;-20487.22;;;35.82;33.55
7058;BME280;3570;43.080;25.628;2023-05-22T12:13:08;-20474.53;;;35.38;32.17
7058;BME280;3570;43.080;25.628;2023-05-22T12:15:54;-20471.97;;;35.29;32.79
7058;BME280;3570;43.080;25.628;2023-05-22T12:18:40;-20471.25;;;35.26;33.49
7058;BME280;3570;43.080;25.628;2023-05-22T12:21:25;-20461.53;;;34.92;33.21
7058;BME280;3570;43.080;25.628;2023-05-22T12:24:10;-20425.22;;;33.64;35.14
7058;BME280;3570;43.080;25.628;2023-05-22T12:26:54;-20397.31;;;32.66;37.49
7058;BME280;3570;43.080;25.628;2023-05-22T12:29:40;-20368.25;;;31.64;41.09
7058;BME280;3570;43.080;25.628;2023-05-22T12:32:24;-20341.13;;;30.69;43.27
7058;BME280;3570;43.080;25.628;2023-05-22T12:35:17;-20365.66;;;31.55;42.75
7058;BME280;3570;43.080;25.628;2023-05-22T12:38:01;-20401.75;;;32.82;39.50
7058;BME280;3570;43.080;25.628;2023-05-22T12:40:45;-20358.63;;;31.30;41.34
7058;BME280;3570;43.080;25.628;2023-05-22T12:43:29;-20366.97;;;31.60;40.77
7058;BME280;3570;43.080;25.628;2023-05-22T12:46:13;-20415.22;;;33.29;36.41
7058;BME280;3570;43.080;25.628;2023-05-22T12:48:58;-20464.09;;;35.01;35.00
7058;BME280;3570;43.080;25.628;2023-05-22T12:51:43;-20405.34;;;32.94;37.68
7058;BME280;3570;43.080;25.628;2023-05-22T12:54:27;-20348.75;;;30.96;42.29
7058;BME280;3570;43.080;25.628;2023-05-22T12:57:11;-20284.41;;;28.70;50.44
7058;BME280;3570;43.080;25.628;2023-05-22T12:59:55;-20239.34;;;27.13;64.85
7058;BME280;3570;43.080;25.628;2023-05-22T13:02:39;-20204.06;;;25.90;73.27
7058;BME280;3570;43.080;25.628;2023-05-22T13:05:23;-20182.69;;;25.15;78.55
7058;BME280;3570;43.080;25.628;2023-05-22T13:08:08;-20156.44;;;24.24;80.31
7058;BME280;3570;43.080;25.628;2023-05-22T13:10:52;-20140.81;;;23.70;81.83
7058;BME280;3570;43.080;25.628;2023-05-22T13:13:36;-20124.94;;;23.14;85.90
7058;BME280;3570;43.080;25.628;2023-05-22T13:16:20;-20112.63;;;22.72;90.81
7058;BME280;3570;43.080;25.628;2023-05-22T13:19:04;-20107.56;;;22.54;93.50
7058;BME280;3570;43.080;25.628;2023-05-22T13:21:48;-20090.94;;;21.96;99.19
7058;BME280;3570;43.080;25.628;2023-05-22T13:24:32;-20068.06;;;21.17;100.00
7058;BME280;3570;43.080;25.628;2023-05-22T13:27:17;-20047.19;;;20.44;100.00
7058;BME280;3570;43.080;25.628;2023-05-22T13:30:02;-20039.22;;;20.17;100.00
7058;BME280;3570;43.080;25.628;2023-05-22T13:32:46;-20043.13;;;20.30;100.00
7058;BME280;3570;43.080;25.628;2023-05-22T13:35:30;-20034.72;;;20.01;100.00
7058;BME280;3570;43.080;25.628;2023-05-22T13:38:14;-20028.06;;;19.78;100.00
7058;BME280;3570;43.080;25.628;2023-05-22T13:40:58;-20015.59;;;19.35;100.00
7058;BME280;3570;43.080;25.628;2023-05-22T13:43:42;-20011.81;;;19.22;100.00
7058;BME280;3570;43.080;25.628;2023-05-22T13:46:26;-20011.38;;;19.20;100.00
7058;BME280;3570;43.080;25.628;2023-05-22T13:49:10;-20000.78;;;18.84;100.00
7058;BME280;3570;43.080;25.628;2023-05-22T13:51:54;-19988.16;;;18.40;100.00
7058;BME280;3570;43.080;25.628;2023-05-22T13:54:38;-19992.50;;;18.55;100.00
7058;BME280;3570;43.080;25.628;2023-05-22T13:57:22;-19986.13;;;18.33;100.00
7058;BME280;3570;43.080;25.628;2023-05-22T14:00:07;-19988.44;;;18.41;100.00
7058;BME280;3570;43.080;25.628;2023-05-22T14:02:52;-19975.97;;;17.98;100.00
7058;BME280;3570;43.080;25.628;2023-05-22T14:05:36;-19955.03;;;17.25;100.00
7058;BME280;3570;43.080;25.628;2023-05-22T14:08:19;-19949.94;;;17.08;100.00
7058;BME280;3570;43.080;25.628;2023-05-22T14:11:03;-19945.16;;;16.91;100.00
7058;BME280;3570;43.080;25.628;2023-05-22T14:13:47;-19940.78;;;16.76;100.00
7058;BME280;3570;43.080;25.628;2023-05-22T14:16:32;-19938.31;;;16.67;100.00
7058;BME280;3570;43.080;25.628;2023-05-22T14:19:18;-19929.59;;;16.37;100.00
7058;BME280;3570;43.080;25.628;2023-05-22T14:22:02;-19933.81;;;16.52;100.00
7058;BME280;3570;43.080;25.628;2023-05-22T14:24:46;-19937.31;;;16.64;100.00
7058;BME280;3570;43.080;25.628;2023-05-22T14:27:30;-19941.53;;;16.78;100.00
7058;BME280;3570;43.080;25.628;2023-05-22T14:30:14;-19939.91;;;16.73;100.00
7058;BME280;3570;43.080;25.628;2023-05-22T14:32:58;-19941.38;;;16.78;100.00
7058;BME280;3570;43.080;25.628;2023-05-22T14:35:42;-19937.88;;;16.66;100.00
7058;BME280;3570;43.080;25.628;2023-05-22T14:38:29;-19949.50;;;17.06;100.00
7058;BME280;3570;43.080;25.628;2023-05-22T14:41:15;-19953.28;;;17.19;100.00
7058;BME280;3570;43.080;25.628;2023-05-22T14:44:00;-19953.88;;;17.21;100.00
7058;BME280;3570;43.080;25.628;2023-05-22T14:46:44;-19947.47;;;16.99;100.00
7058;BME280;3570;43.080;25.628;2023-05-22T14:49:28;-19952.56;;;17.17;100.00
7058;BME280;3570;43.080;25.628;2023-05-22T14:52:12;-19949.22;;;17.05;100.00
7058;BME280;3570;43.080;25.628;2023-05-22T14:54:57;-19932.94;;;16.49;100.00